sensor_id;sensor_type;location;lat;lon;timestamp;pressure;altitude;pressure_sealevel;temperature;humidity
75788;BME280;64406;50.024;14.492;2023-04-24T00:01:39;96940.94;;;8.45;88.44
75788;BME280;64406;50.024;14.492;2023-04-24T00:04:06;96935.41;;;8.55;88.00
75788;BME280;64406;50.024;14.492;2023-04-24T00:06:32;96932.13;;;8.72;87.43
75788;BME280;64406;50.024;14.492;2023-04-24T00:09:03;96928.44;;;8.82;86.73
75788;BME280;64406;50.024;14.492;2023-04-24T00:11:29;96932.22;;;8.94;86.03
75788;BME280;64406;50.024;14.492;2023-04-24T00:13:56;96932.13;;;8.99;86.13
75788;BME280;64406;50.024;14.492;2023-04-24T00:16:22;96927.44;;;9.05;85.56
75788;BME280;64406;50.024;14.492;2023-04-24T00:18:48;96936.69;;;9.13;85.58
75788;BME280;64406;50.024;14.492;2023-04-24T00:21:14;96931.00;;;9.14;85.44
75788;BME280;64406;50.024;14.492;2023-04-24T00:23:43;96917.47;;;9.19;84.69
75788;BME280;64406;50.024;14.492;2023-04-24T00:26:09;96910.19;;;9.20;84.90
75788;BME280;64406;50.024;14.492;2023-04-24T00:28:35;96921.91;;;9.24;84.60
75788;BME280;64406;50.024;14.492;2023-04-24T00:31:01;96909.09;;;9.21;84.50
75788;BME280;64406;50.024;14.492;2023-04-24T00:33:27;96902.03;;;9.25;83.82
75788;BME280;64406;50.024;14.492;2023-04-24T00:35:52;96912.84;;;9.34;83.61
75788;BME280;64406;50.024;14.492;2023-04-24T00:38:18;96905.78;;;9.38;83.18
75788;BME280;64406;50.024;14.492;2023-04-24T00:40:44;96903.28;;;9.41;82.75
75788;BME280;64406;50.024;14.492;2023-04-24T00:43:10;96907.56;;;9.42;82.30
75788;BME280;64406;50.024;14.492;2023-04-24T00:45:37;96906.75;;;9.42;82.57
75788;BME280;64406;50.024;14.492;2023-04-24T00:48:03;96901.59;;;9.45;81.66
75788;BME280;64406;50.024;14.492;2023-04-24T00:50:29;96895.59;;;9.48;81.77
75788;BME280;64406;50.024;14.492;2023-04-24T00:52:56;96891.38;;;9.56;80.88
75788;BME280;64406;50.024;14.492;2023-04-24T00:55:21;96899.16;;;9.58;80.82
75788;BME280;64406;50.024;14.492;2023-04-24T00:57:48;96899.53;;;9.65;79.75
75788;BME280;64406;50.024;14.492;2023-04-24T01:00:15;96894.16;;;9.65;79.08
75788;BME280;64406;50.024;14.492;2023-04-24T01:02:43;96904.13;;;9.64;78.98
75788;BME280;64406;50.024;14.492;2023-04-24T01:05:13;96901.09;;;9.66;78.91
75788;BME280;64406;50.024;14.492;2023-04-24T01:07:41;96903.97;;;9.69;78.33
75788;BME280;64406;50.024;14.492;2023-04-24T01:10:11;96894.88;;;9.79;77.77
75788;BME280;64406;50.024;14.492;2023-04-24T01:12:38;96890.47;;;9.83;77.38
75788;BME280;64406;50.024;14.492;2023-04-24T01:15:04;96899.03;;;9.85;77.55
75788;BME280;64406;50.024;14.492;2023-04-24T01:17:32;96891.81;;;9.94;77.14
75788;BME280;64406;50.024;14.492;2023-04-24T01:19:58;96899.91;;;10.03;76.62
75788;BME280;64406;50.024;14.492;2023-04-24T01:22:25;96891.59;;;10.13;76.64
75788;BME280;64406;50.024;14.492;2023-04-24T01:24:51;96899.84;;;10.17;77.19
75788;BME280;64406;50.024;14.492;2023-04-24T01:27:17;96894.09;;;10.09;77.21
75788;BME280;64406;50.024;14.492;2023-04-24T01:29:43;96886.81;;;10.10;77.07
75788;BME280;64406;50.024;14.492;2023-04-24T01:32:09;96880.06;;;10.13;77.89
75788;BME280;64406;50.024;14.492;2023-04-24T01:34:34;96874.00;;;10.07;78.41
75788;BME280;64406;50.024;14.492;2023-04-24T01:37:00;96885.06;;;10.05;78.86
75788;BME280;64406;50.024;14.492;2023-04-24T01:39:26;96877.91;;;10.01;78.71
75788;BME280;64406;50.024;14.492;2023-04-24T01:41:54;96889.78;;;10.00;78.93
75788;BME280;64406;50.024;14.492;2023-04-24T01:44:20;96871.28;;;9.98;79.27
75788;BME280;64406;50.024;14.492;2023-04-24T01:46:46;96870.63;;;10.01;79.16
75788;BME280;64406;50.024;14.492;2023-04-24T01:49:12;96878.13;;;10.04;78.72
75788;BME280;64406;50.024;14.492;2023-04-24T01:51:38;96863.56;;;10.05;78.42
75788;BME280;64406;50.024;14.492;2023-04-24T01:54:03;96856.53;;;9.96;78.93
75788;BME280;64406;50.024;14.492;2023-04-24T01:56:29;96859.72;;;9.98;78.89
75788;BME280;64406;50.024;14.492;2023-04-24T01:58:56;96865.09;;;9.98;78.99
75788;BME280;64406;50.024;14.492;2023-04-24T02:01:24;96863.06;;;10.03;79.41
75788;BME280;64406;50.024;14.492;2023-04-24T02:03:50;96846.63;;;10.05;78.74
75788;BME280;64406;50.024;14.492;2023-04-24T02:06:15;96851.56;;;10.12;78.75
75788;BME280;64406;50.024;14.492;2023-04-24T02:08:41;96854.38;;;10.06;79.06
75788;BME280;64406;50.024;14.492;2023-04-24T02:11:09;96850.22;;;10.00;79.35
75788;BME280;64406;50.024;14.492;2023-04-24T02:13:34;96852.13;;;10.00;79.62
75788;BME280;64406;50.024;14.492;2023-04-24T02:16:00;96851.81;;;10.01;79.42
75788;BME280;64406;50.024;14.492;2023-04-24T02:18:26;96846.28;;;9.98;79.83
75788;BME280;64406;50.024;14.492;2023-04-24T02:20:52;96850.34;;;9.95;80.17
75788;BME280;64406;50.024;14.492;2023-04-24T02:23:17;96842.41;;;9.90;80.14
75788;BME280;64406;50.024;14.492;2023-04-24T02:25:43;96853.34;;;9.94;79.90
75788;BME280;64406;50.024;14.492;2023-04-24T02:28:09;96858.53;;;9.90;80.77
75788;BME280;64406;50.024;14.492;2023-04-24T02:30:34;96856.47;;;9.87;80.74
75788;BME280;64406;50.024;14.492;2023-04-24T02:33:00;96861.97;;;9.82;81.11
75788;BME280;64406;50.024;14.492;2023-04-24T02:35:26;96860.72;;;9.79;81.32
75788;BME280;64406;50.024;14.492;2023-04-24T02:37:51;96863.56;;;9.83;81.54
75788;BME280;64406;50.024;14.492;2023-04-24T02:40:17;96854.47;;;9.70;81.51
75788;BME280;64406;50.024;14.492;2023-04-24T02:42:43;96865.41;;;9.74;82.08
75788;BME280;64406;50.024;14.492;2023-04-24T02:45:09;96858.44;;;9.73;82.22
75788;BME280;64406;50.024;14.492;2023-04-24T02:47:34;96854.19;;;9.72;82.35
75788;BME280;64406;50.024;14.492;2023-04-24T02:50:01;96851.50;;;9.72;82.43
75788;BME280;64406;50.024;14.492;2023-04-24T02:52:28;96839.63;;;9.73;82.34
75788;BME280;64406;50.024;14.492;2023-04-24T02:54:53;96862.72;;;9.74;82.34
75788;BME280;64406;50.024;14.492;2023-04-24T02:57:19;96858.03;;;9.79;82.26
75788;BME280;64406;50.024;14.492;2023-04-24T02:59:45;96857.41;;;9.82;81.91
75788;BME280;64406;50.024;14.492;2023-04-24T03:02:10;96854.03;;;9.77;82.37
75788;BME280;64406;50.024;14.492;2023-04-24T03:04:36;96856.91;;;9.80;82.49
75788;BME280;64406;50.024;14.492;2023-04-24T03:07:02;96855.13;;;9.76;82.12
75788;BME280;64406;50.024;14.492;2023-04-24T03:09:27;96845.16;;;9.76;82.71
75788;BME280;64406;50.024;14.492;2023-04-24T03:11:53;96851.34;;;9.77;82.55
75788;BME280;64406;50.024;14.492;2023-04-24T03:14:19;96859.84;;;9.70;82.58
75788;BME280;64406;50.024;14.492;2023-04-24T03:16:44;96854.03;;;9.77;82.38
75788;BME280;64406;50.024;14.492;2023-04-24T03:19:10;96852.75;;;9.74;83.26
75788;BME280;64406;50.024;14.492;2023-04-24T03:21:36;96851.19;;;9.73;82.99
75788;BME280;64406;50.024;14.492;2023-04-24T03:24:07;96850.06;;;9.74;82.78
75788;BME280;64406;50.024;14.492;2023-04-24T03:26:32;96848.59;;;9.68;83.33
75788;BME280;64406;50.024;14.492;2023-04-24T03:28:58;96842.91;;;9.70;83.15
75788;BME280;64406;50.024;14.492;2023-04-24T03:31:24;96839.28;;;9.66;83.37
75788;BME280;64406;50.024;14.492;2023-04-24T03:33:50;96841.16;;;9.65;83.98
75788;BME280;64406;50.024;14.492;2023-04-24T03:36:16;96837.31;;;9.58;83.45
75788;BME280;64406;50.024;14.492;2023-04-24T03:38:41;96845.88;;;9.60;83.68
75788;BME280;64406;50.024;14.492;2023-04-24T03:41:07;96847.56;;;9.56;84.17
75788;BME280;64406;50.024;14.492;2023-04-24T03:43:33;96850.38;;;9.50;84.27
75788;BME280;64406;50.024;14.492;2023-04-24T03:46:00;96848.94;;;9.44;84.40
75788;BME280;64406;50.024;14.492;2023-04-24T03:48:25;96850.31;;;9.42;84.44
75788;BME280;64406;50.024;14.492;2023-04-24T03:50:51;96847.25;;;9.35;84.70
75788;BME280;64406;50.024;14.492;2023-04-24T03:53:17;96862.28;;;9.36;84.55
75788;BME280;64406;50.024;14.492;2023-04-24T03:55:42;96853.13;;;9.37;84.72
75788;BME280;64406;50.024;14.492;2023-04-24T03:58:08;96857.69;;;9.36;84.77
75788;BME280;64406;50.024;14.492;2023-04-24T04:00:33;96860.38;;;9.36;85.07
75788;BME280;64406;50.024;14.492;2023-04-24T04:03:00;96860.38;;;9.36;84.79
75788;BME280;64406;50.024;14.492;2023-04-24T04:05:26;96858.22;;;9.38;85.25
75788;BME280;64406;50.024;14.492;2023-04-24T04:07:52;96860.75;;;9.43;84.77
75788;BME280;64406;50.024;14.492;2023-04-24T04:10:17;96871.28;;;9.53;83.95
75788;BME280;64406;50.024;14.492;2023-04-24T04:12:43;96871.75;;;9.56;84.27
75788;BME280;64406;50.024;14.492;2023-04-24T04:15:09;96875.13;;;9.61;84.01
75788;BME280;64406;50.024;14.492;2023-04-24T04:17:34;96879.41;;;9.62;83.87
75788;BME280;64406;50.024;14.492;2023-04-24T04:20:00;96879.50;;;9.71;83.76
75788;BME280;64406;50.024;14.492;2023-04-24T04:22:26;96872.84;;;9.77;83.64
75788;BME280;64406;50.024;14.492;2023-04-24T04:24:52;96871.28;;;9.76;83.77
75788;BME280;64406;50.024;14.492;2023-04-24T04:27:17;96877.75;;;9.75;83.79
75788;BME280;64406;50.024;14.492;2023-04-24T04:29:44;96880.06;;;9.68;83.98
75788;BME280;64406;50.024;14.492;2023-04-24T04:32:10;96872.31;;;9.66;83.77
75788;BME280;64406;50.024;14.492;2023-04-24T04:34:35;96888.19;;;9.76;83.61
75788;BME280;64406;50.024;14.492;2023-04-24T04:37:03;96885.81;;;9.75;83.71
75788;BME280;64406;50.024;14.492;2023-04-24T04:39:29;96886.31;;;9.77;83.60
75788;BME280;64406;50.024;14.492;2023-04-24T04:41:55;96888.75;;;9.87;83.20
75788;BME280;64406;50.024;14.492;2023-04-24T04:44:21;96888.75;;;9.87;83.07
75788;BME280;64406;50.024;14.492;2023-04-24T04:46:47;96895.25;;;9.86;82.91
75788;BME280;64406;50.024;14.492;2023-04-24T04:49:13;96894.13;;;9.87;83.00
75788;BME280;64406;50.024;14.492;2023-04-24T04:51:42;96886.69;;;9.84;83.20
75788;BME280;64406;50.024;14.492;2023-04-24T04:54:07;96894.34;;;9.91;83.07
75788;BME280;64406;50.024;14.492;2023-04-24T04:56:33;96887.34;;;9.90;82.70
75788;BME280;64406;50.024;14.492;2023-04-24T04:58:58;96900.44;;;10.05;82.60
75788;BME280;64406;50.024;14.492;2023-04-24T05:01:25;96903.28;;;10.08;82.51
75788;BME280;64406;50.024;14.492;2023-04-24T05:03:52;96908.66;;;10.08;82.12
75788;BME280;64406;50.024;14.492;2023-04-24T05:06:18;96907.41;;;10.06;82.44
75788;BME280;64406;50.024;14.492;2023-04-24T05:08:44;96902.00;;;10.06;82.79
75788;BME280;64406;50.024;14.492;2023-04-24T05:11:10;96913.44;;;10.12;82.22
75788;BME280;64406;50.024;14.492;2023-04-24T05:13:35;96916.50;;;10.19;82.03
75788;BME280;64406;50.024;14.492;2023-04-24T05:16:01;96915.38;;;10.20;82.05
75788;BME280;64406;50.024;14.492;2023-04-24T05:18:26;96926.16;;;10.20;82.17
75788;BME280;64406;50.024;14.492;2023-04-24T05:20:52;96917.97;;;10.25;81.53
75788;BME280;64406;50.024;14.492;2023-04-24T05:23:18;96919.25;;;10.27;81.88
75788;BME280;64406;50.024;14.492;2023-04-24T05:25:44;96928.31;;;10.31;81.50
75788;BME280;64406;50.024;14.492;2023-04-24T05:28:09;96933.38;;;10.33;81.76
75788;BME280;64406;50.024;14.492;2023-04-24T05:30:35;96927.88;;;10.38;81.55
75788;BME280;64406;50.024;14.492;2023-04-24T05:33:01;96929.78;;;10.38;81.01
75788;BME280;64406;50.024;14.492;2023-04-24T05:35:28;96923.16;;;10.44;80.86
75788;BME280;64406;50.024;14.492;2023-04-24T05:37:54;96921.25;;;10.44;80.75
75788;BME280;64406;50.024;14.492;2023-04-24T05:40:20;96921.84;;;10.41;80.52
75788;BME280;64406;50.024;14.492;2023-04-24T05:42:45;96927.75;;;10.43;80.37
75788;BME280;64406;50.024;14.492;2023-04-24T05:45:11;96926.44;;;10.41;80.35
75788;BME280;64406;50.024;14.492;2023-04-24T05:47:42;96928.81;;;10.42;80.00
75788;BME280;64406;50.024;14.492;2023-04-24T05:50:10;96933.75;;;10.49;80.54
75788;BME280;64406;50.024;14.492;2023-04-24T05:52:38;96942.16;;;10.47;80.47
75788;BME280;64406;50.024;14.492;2023-04-24T05:55:04;96939.00;;;10.45;80.17
75788;BME280;64406;50.024;14.492;2023-04-24T05:57:30;96936.78;;;10.47;80.56
75788;BME280;64406;50.024;14.492;2023-04-24T05:59:56;96943.94;;;10.52;79.87
75788;BME280;64406;50.024;14.492;2023-04-24T06:02:22;96949.63;;;10.50;79.98
75788;BME280;64406;50.024;14.492;2023-04-24T06:04:49;96941.41;;;10.55;79.87
75788;BME280;64406;50.024;14.492;2023-04-24T06:07:15;96949.19;;;10.57;79.40
75788;BME280;64406;50.024;14.492;2023-04-24T06:09:40;96951.88;;;10.57;79.58
75788;BME280;64406;50.024;14.492;2023-04-24T06:12:06;96951.91;;;10.66;79.37
75788;BME280;64406;50.024;14.492;2023-04-24T06:14:35;96957.78;;;10.68;80.18
75788;BME280;64406;50.024;14.492;2023-04-24T06:17:01;96951.63;;;10.76;80.14
75788;BME280;64406;50.024;14.492;2023-04-24T06:19:27;96959.34;;;10.69;79.76
75788;BME280;64406;50.024;14.492;2023-04-24T06:21:52;96955.47;;;10.83;80.32
75788;BME280;64406;50.024;14.492;2023-04-24T06:24:19;96959.25;;;10.82;79.93
75788;BME280;64406;50.024;14.492;2023-04-24T06:26:45;96953.59;;;10.84;80.08
75788;BME280;64406;50.024;14.492;2023-04-24T06:29:11;96961.81;;;10.87;79.74
75788;BME280;64406;50.024;14.492;2023-04-24T06:31:36;96964.72;;;11.00;79.97
75788;BME280;64406;50.024;14.492;2023-04-24T06:34:03;96967.72;;;10.89;80.54
75788;BME280;64406;50.024;14.492;2023-04-24T06:36:29;96966.53;;;10.73;81.50
75788;BME280;64406;50.024;14.492;2023-04-24T06:38:56;96971.69;;;10.61;81.78
75788;BME280;64406;50.024;14.492;2023-04-24T06:41:22;96979.88;;;10.56;82.34
75788;BME280;64406;50.024;14.492;2023-04-24T06:43:48;96979.41;;;10.54;82.92
75788;BME280;64406;50.024;14.492;2023-04-24T06:46:13;96976.72;;;10.54;83.03
75788;BME280;64406;50.024;14.492;2023-04-24T06:48:40;96983.69;;;10.55;83.22
75788;BME280;64406;50.024;14.492;2023-04-24T06:51:07;96982.38;;;10.44;83.67
75788;BME280;64406;50.024;14.492;2023-04-24T06:53:36;96979.38;;;10.45;83.85
75788;BME280;64406;50.024;14.492;2023-04-24T06:56:02;96965.13;;;10.45;84.21
75788;BME280;64406;50.024;14.492;2023-04-24T06:58:30;96974.03;;;10.54;84.04
75788;BME280;64406;50.024;14.492;2023-04-24T07:00:55;96979.94;;;10.65;83.54
75788;BME280;64406;50.024;14.492;2023-04-24T07:03:21;96973.56;;;10.83;83.67
75788;BME280;64406;50.024;14.492;2023-04-24T07:05:48;96976.88;;;10.88;83.22
75788;BME280;64406;50.024;14.492;2023-04-24T07:08:14;96967.59;;;11.03;82.01
75788;BME280;64406;50.024;14.492;2023-04-24T07:10:42;96966.53;;;11.22;80.45
75788;BME280;64406;50.024;14.492;2023-04-24T07:13:08;96974.19;;;11.37;81.33
75788;BME280;64406;50.024;14.492;2023-04-24T07:15:33;96974.91;;;11.11;82.16
75788;BME280;64406;50.024;14.492;2023-04-24T07:17:59;96978.72;;;11.19;82.48
75788;BME280;64406;50.024;14.492;2023-04-24T07:20:25;96984.63;;;11.30;81.51
75788;BME280;64406;50.024;14.492;2023-04-24T07:22:51;96977.09;;;11.01;82.25
75788;BME280;64406;50.024;14.492;2023-04-24T07:25:19;96979.63;;;11.06;83.52
75788;BME280;64406;50.024;14.492;2023-04-24T07:27:45;96981.91;;;11.21;83.57
75788;BME280;64406;50.024;14.492;2023-04-24T07:30:10;96994.59;;;11.21;81.85
75788;BME280;64406;50.024;14.492;2023-04-24T07:32:36;96986.47;;;11.03;82.29
75788;BME280;64406;50.024;14.492;2023-04-24T07:35:02;96987.59;;;11.20;82.41
75788;BME280;64406;50.024;14.492;2023-04-24T07:37:28;96989.38;;;11.24;82.86
75788;BME280;64406;50.024;14.492;2023-04-24T07:39:54;96995.69;;;11.11;83.27
75788;BME280;64406;50.024;14.492;2023-04-24T07:42:23;96995.94;;;11.01;83.67
75788;BME280;64406;50.024;14.492;2023-04-24T07:44:55;96998.97;;;10.99;83.46
75788;BME280;64406;50.024;14.492;2023-04-24T07:47:21;97000.53;;;11.00;83.72
75788;BME280;64406;50.024;14.492;2023-04-24T07:49:46;97001.19;;;10.97;82.45
75788;BME280;64406;50.024;14.492;2023-04-24T07:52:12;97020.28;;;10.87;83.83
75788;BME280;64406;50.024;14.492;2023-04-24T07:54:42;97013.13;;;10.82;83.99
75788;BME280;64406;50.024;14.492;2023-04-24T07:57:12;97017.56;;;10.78;84.55
75788;BME280;64406;50.024;14.492;2023-04-24T07:59:40;97013.06;;;10.65;84.11
75788;BME280;64406;50.024;14.492;2023-04-24T08:02:09;97018.88;;;10.58;84.75
75788;BME280;64406;50.024;14.492;2023-04-24T08:04:35;97021.47;;;10.64;85.52
75788;BME280;64406;50.024;14.492;2023-04-24T08:07:02;97022.50;;;10.54;85.32
75788;BME280;64406;50.024;14.492;2023-04-24T08:09:27;97025.66;;;10.56;85.91
75788;BME280;64406;50.024;14.492;2023-04-24T08:11:56;97025.50;;;10.52;86.73
75788;BME280;64406;50.024;14.492;2023-04-24T08:14:22;97021.88;;;10.57;85.83
75788;BME280;64406;50.024;14.492;2023-04-24T08:16:48;97017.34;;;10.66;85.03
75788;BME280;64406;50.024;14.492;2023-04-24T08:19:14;97022.97;;;10.56;84.94
75788;BME280;64406;50.024;14.492;2023-04-24T08:21:40;97022.53;;;10.62;85.20
75788;BME280;64406;50.024;14.492;2023-04-24T08:24:05;97019.50;;;10.86;84.97
75788;BME280;64406;50.024;14.492;2023-04-24T08:26:33;97014.78;;;10.92;84.29
75788;BME280;64406;50.024;14.492;2023-04-24T08:28:58;97014.69;;;11.14;83.75
75788;BME280;64406;50.024;14.492;2023-04-24T08:31:24;97011.59;;;11.30;83.10
75788;BME280;64406;50.024;14.492;2023-04-24T08:33:51;97009.91;;;11.51;83.03
75788;BME280;64406;50.024;14.492;2023-04-24T08:36:17;97001.03;;;11.68;82.20
75788;BME280;64406;50.024;14.492;2023-04-24T08:38:42;96997.72;;;11.71;81.93
75788;BME280;64406;50.024;14.492;2023-04-24T08:41:09;96999.63;;;11.70;81.18
75788;BME280;64406;50.024;14.492;2023-04-24T08:43:35;96999.50;;;11.84;80.33
75788;BME280;64406;50.024;14.492;2023-04-24T08:46:03;97000.63;;;11.83;79.52
75788;BME280;64406;50.024;14.492;2023-04-24T08:48:30;97007.84;;;11.74;78.78
75788;BME280;64406;50.024;14.492;2023-04-24T08:50:57;97012.44;;;11.56;78.95
75788;BME280;64406;50.024;14.492;2023-04-24T08:53:25;97010.03;;;11.55;78.65
75788;BME280;64406;50.024;14.492;2023-04-24T08:55:54;97013.38;;;11.43;79.64
75788;BME280;64406;50.024;14.492;2023-04-24T08:58:20;97007.75;;;11.22;80.86
75788;BME280;64406;50.024;14.492;2023-04-24T09:00:47;97011.72;;;11.25;81.07
75788;BME280;64406;50.024;14.492;2023-04-24T09:03:16;97020.75;;;11.29;81.82
75788;BME280;64406;50.024;14.492;2023-04-24T09:05:46;97012.38;;;11.30;80.06
75788;BME280;64406;50.024;14.492;2023-04-24T09:08:19;97018.72;;;11.34;79.99
75788;BME280;64406;50.024;14.492;2023-04-24T09:10:45;97031.41;;;11.34;79.31
75788;BME280;64406;50.024;14.492;2023-04-24T09:13:11;97030.19;;;11.49;79.88
75788;BME280;64406;50.024;14.492;2023-04-24T09:15:38;97024.97;;;11.52;79.69
75788;BME280;64406;50.024;14.492;2023-04-24T09:18:04;97022.13;;;11.75;78.21
75788;BME280;64406;50.024;14.492;2023-04-24T09:20:31;97021.56;;;12.04;77.73
75788;BME280;64406;50.024;14.492;2023-04-24T09:22:57;97021.91;;;12.28;76.03
75788;BME280;64406;50.024;14.492;2023-04-24T09:25:34;97023.47;;;12.29;75.65
75788;BME280;64406;50.024;14.492;2023-04-24T09:28:02;97022.63;;;12.63;75.07
75788;BME280;64406;50.024;14.492;2023-04-24T09:30:28;97019.56;;;12.82;73.52
75788;BME280;64406;50.024;14.492;2023-04-24T09:33:14;97020.66;;;12.90;73.27
75788;BME280;64406;50.024;14.492;2023-04-24T09:35:41;97020.28;;;13.09;71.41
75788;BME280;64406;50.024;14.492;2023-04-24T09:38:08;97010.78;;;13.32;71.09
75788;BME280;64406;50.024;14.492;2023-04-24T09:40:34;97009.34;;;13.64;69.90
75788;BME280;64406;50.024;14.492;2023-04-24T09:43:00;97008.78;;;14.00;69.65
75788;BME280;64406;50.024;14.492;2023-04-24T09:45:34;97012.53;;;13.37;70.50
75788;BME280;64406;50.024;14.492;2023-04-24T09:48:00;97014.19;;;13.20;72.21
75788;BME280;64406;50.024;14.492;2023-04-24T09:50:26;97003.19;;;13.25;69.91
75788;BME280;64406;50.024;14.492;2023-04-24T09:52:57;97002.50;;;13.37;68.71
75788;BME280;64406;50.024;14.492;2023-04-24T09:55:24;97002.44;;;13.46;70.54
75788;BME280;64406;50.024;14.492;2023-04-24T09:57:58;96995.19;;;13.88;69.88
75788;BME280;64406;50.024;14.492;2023-04-24T10:00:27;96996.28;;;13.66;70.06
75788;BME280;64406;50.024;14.492;2023-04-24T10:02:55;97001.31;;;13.76;69.08
75788;BME280;64406;50.024;14.492;2023-04-24T10:05:32;96995.69;;;13.60;68.41
75788;BME280;64406;50.024;14.492;2023-04-24T10:08:10;96989.47;;;13.60;68.75
75788;BME280;64406;50.024;14.492;2023-04-24T10:10:39;96997.06;;;13.67;69.93
75788;BME280;64406;50.024;14.492;2023-04-24T10:13:07;96999.59;;;13.72;68.00
75788;BME280;64406;50.024;14.492;2023-04-24T10:15:33;96989.53;;;13.72;68.85
75788;BME280;64406;50.024;14.492;2023-04-24T10:17:59;96999.13;;;14.11;67.36
75788;BME280;64406;50.024;14.492;2023-04-24T10:20:28;96997.69;;;14.14;68.12
75788;BME280;64406;50.024;14.492;2023-04-24T10:22:59;96994.44;;;14.21;66.35
75788;BME280;64406;50.024;14.492;2023-04-24T10:25:27;96982.22;;;14.14;67.95
75788;BME280;64406;50.024;14.492;2023-04-24T10:27:54;96986.63;;;13.56;65.88
75788;BME280;64406;50.024;14.492;2023-04-24T10:30:23;96993.81;;;13.52;66.12
75788;BME280;64406;50.024;14.492;2023-04-24T10:32:49;96984.19;;;14.05;67.70
75788;BME280;64406;50.024;14.492;2023-04-24T10:35:16;96983.34;;;14.67;65.22
75788;BME280;64406;50.024;14.492;2023-04-24T10:37:46;96979.75;;;14.88;63.35
75788;BME280;64406;50.024;14.492;2023-04-24T10:40:26;96965.75;;;15.47;63.34
75788;BME280;64406;50.024;14.492;2023-04-24T10:42:53;96988.47;;;15.18;64.54
75788;BME280;64406;50.024;14.492;2023-04-24T10:45:21;96979.75;;;15.49;60.68
75788;BME280;64406;50.024;14.492;2023-04-24T10:48:12;96992.50;;;14.75;61.51
75788;BME280;64406;50.024;14.492;2023-04-24T10:50:52;96986.88;;;14.92;62.11
75788;BME280;64406;50.024;14.492;2023-04-24T10:53:20;96979.38;;;14.77;62.17
75788;BME280;64406;50.024;14.492;2023-04-24T10:58:38;96963.00;;;14.74;63.00
75788;BME280;64406;50.024;14.492;2023-04-24T11:01:05;96958.97;;;15.41;61.66
75788;BME280;64406;50.024;14.492;2023-04-24T11:03:35;96949.09;;;15.73;57.21
75788;BME280;64406;50.024;14.492;2023-04-24T11:06:06;96957.03;;;15.78;57.07
75788;BME280;64406;50.024;14.492;2023-04-24T11:08:42;96954.31;;;15.66;58.49
75788;BME280;64406;50.024;14.492;2023-04-24T11:11:13;96952.31;;;15.26;59.13
75788;BME280;64406;50.024;14.492;2023-04-24T11:18:52;96953.13;;;15.91;55.51
75788;BME280;64406;50.024;14.492;2023-04-24T11:21:25;96950.53;;;15.83;54.71
75788;BME280;64406;50.024;14.492;2023-04-24T11:23:51;96954.34;;;16.22;54.49
75788;BME280;64406;50.024;14.492;2023-04-24T11:26:19;96966.06;;;16.10;54.62
75788;BME280;64406;50.024;14.492;2023-04-24T11:28:47;96959.59;;;15.87;52.80
75788;BME280;64406;50.024;14.492;2023-04-24T11:34:15;96964.31;;;15.90;52.68
75788;BME280;64406;50.024;14.492;2023-04-24T11:36:47;96958.81;;;16.14;51.77
75788;BME280;64406;50.024;14.492;2023-04-24T11:39:14;96957.88;;;16.22;53.18
75788;BME280;64406;50.024;14.492;2023-04-24T11:41:40;96955.53;;;15.56;51.55
75788;BME280;64406;50.024;14.492;2023-04-24T11:46:39;96948.59;;;15.83;52.32
75788;BME280;64406;50.024;14.492;2023-04-24T11:49:05;96956.25;;;15.65;52.50
75788;BME280;64406;50.024;14.492;2023-04-24T11:51:31;96967.09;;;14.92;52.73
75788;BME280;64406;50.024;14.492;2023-04-24T11:53:56;96947.91;;;15.09;54.23
75788;BME280;64406;50.024;14.492;2023-04-24T11:56:24;96957.59;;;15.47;52.59
75788;BME280;64406;50.024;14.492;2023-04-24T11:58:52;96951.75;;;15.08;52.83
75788;BME280;64406;50.024;14.492;2023-04-24T12:01:19;96944.94;;;14.90;53.61
75788;BME280;64406;50.024;14.492;2023-04-24T12:03:50;96949.38;;;14.94;54.81
75788;BME280;64406;50.024;14.492;2023-04-24T12:06:16;96952.97;;;14.74;55.03
75788;BME280;64406;50.024;14.492;2023-04-24T12:08:45;96954.91;;;14.40;55.83
75788;BME280;64406;50.024;14.492;2023-04-24T12:11:15;96949.78;;;14.39;56.22
75788;BME280;64406;50.024;14.492;2023-04-24T12:13:40;96956.28;;;14.26;55.83
75788;BME280;64406;50.024;14.492;2023-04-24T12:16:06;96960.09;;;13.92;56.59
75788;BME280;64406;50.024;14.492;2023-04-24T12:18:32;96958.34;;;13.54;59.41
75788;BME280;64406;50.024;14.492;2023-04-24T12:23:43;97016.97;;;12.30;70.65
75788;BME280;64406;50.024;14.492;2023-04-24T12:26:08;97018.84;;;11.21;80.65
75788;BME280;64406;50.024;14.492;2023-04-24T12:28:35;97019.69;;;10.37;82.50
75788;BME280;64406;50.024;14.492;2023-04-24T12:31:02;97021.13;;;10.20;84.80
75788;BME280;64406;50.024;14.492;2023-04-24T12:33:27;97019.75;;;9.87;83.23
75788;BME280;64406;50.024;14.492;2023-04-24T12:35:58;97015.00;;;9.70;84.12
75788;BME280;64406;50.024;14.492;2023-04-24T12:38:26;97011.94;;;9.63;83.88
75788;BME280;64406;50.024;14.492;2023-04-24T12:41:22;97000.97;;;9.73;85.14
75788;BME280;64406;50.024;14.492;2023-04-24T12:43:54;97008.25;;;9.95;85.35
75788;BME280;64406;50.024;14.492;2023-04-24T12:46:20;96987.72;;;10.21;85.50
75788;BME280;64406;50.024;14.492;2023-04-24T12:48:46;96998.56;;;10.52;84.51
75788;BME280;64406;50.024;14.492;2023-04-24T12:51:12;96992.59;;;10.95;83.10
75788;BME280;64406;50.024;14.492;2023-04-24T12:53:37;96984.63;;;11.30;84.41
75788;BME280;64406;50.024;14.492;2023-04-24T12:56:03;96992.13;;;11.59;83.41
75788;BME280;64406;50.024;14.492;2023-04-24T12:58:29;96989.81;;;11.83;82.31
75788;BME280;64406;50.024;14.492;2023-04-24T13:00:55;96992.19;;;11.93;79.27
75788;BME280;64406;50.024;14.492;2023-04-24T13:03:20;96991.03;;;11.68;79.85
75788;BME280;64406;50.024;14.492;2023-04-24T13:05:49;96984.72;;;11.99;78.14
75788;BME280;64406;50.024;14.492;2023-04-24T13:08:14;96977.38;;;12.43;78.09